Time;durP1;ratioP1;P1;durP2;ratioP2;P2;SDS_P1;SDS_P2;PMS_P1;PMS_P2;Temp;Humidity;BMP_temperature;BMP_pressure;BME280_temperature;BME280_humidity;BME280_pressure;Samples;Min_cycle;Max_cycle;Signal;HPM_P1;HPM_P2
2022/06/24 00:02:10;;;;;;;21.55;18.80;;;21.40;99.90;;;;;;5112752;28;20035;-70
2022/06/24 00:04:37;;;;;;;20.75;18.20;;;21.30;99.90;;;;;;5096486;28;20075;-70
2022/06/24 00:07:16;;;;;;;21.15;18.95;;;21.30;99.90;;;;;;5115041;28;20118;-70
2022/06/24 00:09:43;;;;;;;21.58;19.45;;;21.20;99.90;;;;;;5113821;28;20044;-70
2022/06/24 00:12:12;;;;;;;21.70;18.40;;;21.10;99.90;;;;;;5096432;28;20032;-70
2022/06/24 00:14:39;;;;;;;24.13;18.17;;;21.10;99.90;;;;;;5079453;28;20092;-70
2022/06/24 00:17:09;;;;;;;26.63;18.83;;;21.00;99.90;;;;;;5096375;28;20285;-69
2022/06/24 00:19:51;;;;;;;24.45;20.50;;;20.90;99.90;;;;;;5096309;28;20050;-70
2022/06/24 00:22:17;;;;;;;24.48;21.80;;;20.90;99.90;;;;;;5114628;28;20039;-70
2022/06/24 00:24:43;;;;;;;26.30;21.27;;;20.90;99.90;;;;;;5096207;28;20039;-69
2022/06/24 00:27:22;;;;;;;24.23;21.63;;;20.80;99.90;;;;;;5096147;28;20040;-70
2022/06/24 00:29:50;;;;;;;29.92;25.77;;;20.70;99.90;;;;;;5114408;28;20590;-69
2022/06/24 00:32:29;;;;;;;27.42;22.40;;;20.60;99.90;;;;;;5093910;28;20040;-70
2022/06/24 00:35:03;;;;;;;27.98;23.35;;;20.60;99.90;;;;;;5114589;28;20043;-70
2022/06/24 00:37:31;;;;;;;28.08;24.83;;;20.50;99.90;;;;;;5114223;28;20117;-70
2022/06/24 00:40:11;;;;;;;24.02;21.45;;;20.50;99.90;;;;;;5095931;28;20047;-70
2022/06/24 00:42:39;;;;;;;25.83;21.27;;;20.40;99.90;;;;;;5095875;28;20081;-70
2022/06/24 00:45:26;;;;;;;27.88;22.02;;;20.40;99.90;;;;;;5095645;28;20046;-70
2022/06/24 00:47:55;;;;;;;25.95;23.10;;;20.30;99.90;;;;;;5095520;28;20051;-70
2022/06/24 00:50:32;;;;;;;28.90;23.73;;;20.30;99.90;;;;;;5095746;28;20052;-70
2022/06/24 00:53:00;;;;;;;23.92;20.20;;;20.20;99.90;;;;;;5114058;28;20034;-70
2022/06/24 00:55:37;;;;;;;26.15;21.73;;;20.20;99.90;;;;;;5095921;28;20391;-69
2022/06/24 00:58:04;;;;;;;26.88;21.35;;;20.10;99.90;;;;;;5113893;28;20062;-69
2022/06/24 01:00:34;;;;;;;23.52;19.95;;;20.00;99.90;;;;;;5095501;28;20130;-70
2022/06/24 01:03:04;;;;;;;26.83;21.08;;;20.00;99.90;;;;;;5093589;28;20043;-69
2022/06/24 01:05:32;;;;;;;27.23;24.33;;;19.90;99.90;;;;;;5113625;28;20075;-70
2022/06/24 01:08:05;;;;;;;25.38;22.77;;;19.90;99.90;;;;;;5095556;28;20075;-69
2022/06/24 01:10:30;;;;;;;25.83;22.80;;;19.90;99.90;;;;;;5095420;28;20050;-70
2022/06/24 01:12:58;;;;;;;23.15;20.73;;;19.90;99.90;;;;;;5095610;28;20031;-70
2022/06/24 01:15:24;;;;;;;23.80;20.02;;;19.90;99.90;;;;;;5095696;28;20074;-70
2022/06/24 01:17:50;;;;;;;26.55;23.38;;;19.90;99.90;;;;;;5095524;28;20537;-70
2022/06/24 01:20:16;;;;;;;27.20;22.40;;;19.90;99.90;;;;;;5113096;28;20036;-70
2022/06/24 01:22:42;;;;;;;24.65;22.10;;;19.90;99.90;;;;;;5095414;28;20039;-70
2022/06/24 01:25:10;;;;;;;22.80;19.98;;;19.90;99.90;;;;;;5078354;28;20050;-70
2022/06/24 01:27:36;;;;;;;24.63;22.00;;;19.90;99.90;;;;;;5078554;28;20118;-70
2022/06/24 01:30:03;;;;;;;26.20;23.50;;;19.90;99.90;;;;;;5078562;28;20101;-70
2022/06/24 01:32:28;;;;;;;27.02;24.10;;;19.80;99.90;;;;;;5093082;28;20123;-70
2022/06/24 01:34:56;;;;;;;26.38;23.63;;;19.80;99.90;;;;;;5095109;28;20123;-70
2022/06/24 01:37:25;;;;;;;25.13;21.83;;;19.70;99.90;;;;;;5113499;28;20047;-70
2022/06/24 01:39:51;;;;;;;25.15;22.58;;;19.80;99.90;;;;;;5113308;28;20360;-69
2022/06/24 01:42:16;;;;;;;27.02;24.23;;;19.70;99.90;;;;;;5094877;28;20054;-69
2022/06/24 01:44:42;;;;;;;28.13;24.15;;;19.70;99.90;;;;;;5113215;28;20115;-70
2022/06/24 01:47:08;;;;;;;29.70;25.75;;;19.70;99.90;;;;;;5091795;28;20047;-70
2022/06/24 01:49:35;;;;;;;31.60;25.67;;;19.70;99.90;;;;;;5091638;28;20553;-70
2022/06/24 01:52:01;;;;;;;28.20;24.55;;;19.70;99.90;;;;;;5092870;28;20044;-70
2022/06/24 01:54:27;;;;;;;29.52;24.33;;;19.70;99.90;;;;;;5092731;28;20468;-70
2022/06/24 01:56:54;;;;;;;27.60;24.60;;;19.80;99.90;;;;;;5074711;28;20496;-70
2022/06/24 01:59:20;;;;;;;28.23;23.52;;;19.70;99.90;;;;;;5091523;28;20048;-70
2022/06/24 02:01:47;;;;;;;26.65;23.88;;;19.70;99.90;;;;;;5089450;28;20515;-70
2022/06/24 02:04:13;;;;;;;28.70;25.58;;;19.70;99.90;;;;;;5091554;28;20036;-70
2022/06/24 02:06:39;;;;;;;27.13;23.50;;;19.70;99.90;;;;;;5092713;28;20040;-70
2022/06/24 02:09:06;;;;;;;30.50;26.10;;;19.70;99.90;;;;;;5092685;28;20032;-70
2022/06/24 02:14:18;;;;;;;29.85;23.67;;;19.70;99.90;;;;;;5091296;28;20048;-70
2022/06/24 02:16:45;;;;;;;26.67;23.17;;;19.70;99.90;;;;;;5091432;28;20048;-70
2022/06/24 02:19:11;;;;;;;25.45;22.48;;;19.70;99.90;;;;;;5092686;28;20575;-70
2022/06/24 02:21:37;;;;;;;25.55;22.67;;;19.70;99.90;;;;;;5091360;28;20079;-70
2022/06/24 02:24:03;;;;;;;27.45;23.98;;;19.70;99.90;;;;;;5091124;28;20044;-69
2022/06/24 02:26:29;;;;;;;26.85;24.08;;;19.70;99.90;;;;;;5091626;28;20389;-70
2022/06/24 02:28:56;;;;;;;29.02;24.05;;;19.70;99.90;;;;;;5091375;28;20051;-70
2022/06/24 02:31:21;;;;;;;26.20;23.50;;;19.70;99.90;;;;;;5090311;28;20102;-70
2022/06/24 02:33:47;;;;;;;30.15;26.88;;;19.70;99.90;;;;;;5093841;28;20036;-70
2022/06/24 02:36:13;;;;;;;29.17;25.10;;;19.70;99.90;;;;;;5094929;28;20079;-69
2022/06/24 02:38:39;;;;;;;32.78;25.63;;;19.70;99.90;;;;;;5095002;28;20071;-69
2022/06/24 02:41:05;;;;;;;28.23;25.17;;;19.70;99.90;;;;;;5094919;28;20044;-69
2022/06/24 02:43:33;;;;;;;30.95;27.13;;;19.70;99.90;;;;;;5096280;28;20124;-69
2022/06/24 02:46:06;;;;;;;33.08;26.40;;;19.70;99.90;;;;;;5095904;28;20043;-69
2022/06/24 02:48:34;;;;;;;26.85;23.73;;;19.70;99.90;;;;;;5081148;28;20552;-69
2022/06/24 02:51:02;;;;;;;33.42;27.35;;;19.70;99.90;;;;;;5098060;28;20131;-69
2022/06/24 02:53:29;;;;;;;34.03;27.80;;;19.70;99.90;;;;;;5116641;28;20039;-69
2022/06/24 02:55:58;;;;;;;31.00;26.73;;;19.60;99.90;;;;;;5098020;28;20050;-69
2022/06/24 02:58:24;;;;;;;28.25;24.05;;;19.70;99.90;;;;;;5116415;28;20387;-69
2022/06/24 03:00:50;;;;;;;31.52;26.77;;;19.70;99.90;;;;;;5097071;28;20049;-69
2022/06/24 03:03:18;;;;;;;32.55;28.77;;;19.60;99.90;;;;;;5115052;28;20591;-69
2022/06/24 03:05:45;;;;;;;30.65;25.30;;;19.70;99.90;;;;;;5097919;28;20035;-69
2022/06/24 03:08:12;;;;;;;27.63;24.83;;;19.60;99.90;;;;;;5116016;28;20042;-68
2022/06/24 03:10:38;;;;;;;31.05;24.17;;;19.60;99.90;;;;;;5115968;28;20040;-68
2022/06/24 03:13:04;;;;;;;33.67;27.30;;;19.60;99.90;;;;;;5116139;28;20043;-68
2022/06/24 03:15:31;;;;;;;29.08;25.95;;;19.60;99.90;;;;;;5115950;28;20043;-68
2022/06/24 03:17:57;;;;;;;29.77;25.50;;;19.60;99.90;;;;;;5080980;28;20039;-70
2022/06/24 03:20:23;;;;;;;28.77;24.73;;;19.60;99.90;;;;;;5097535;28;20044;-70
2022/06/24 03:22:50;;;;;;;25.13;22.52;;;19.60;99.90;;;;;;5097804;28;20043;-69
2022/06/24 03:25:16;;;;;;;29.55;24.67;;;19.70;99.90;;;;;;5097301;28;20043;-70
2022/06/24 03:27:41;;;;;;;27.25;23.35;;;19.70;99.90;;;;;;5097675;28;20123;-69
2022/06/24 03:30:09;;;;;;;29.08;24.23;;;19.80;99.90;;;;;;5115726;28;20457;-70
2022/06/24 03:32:36;;;;;;;31.58;22.80;;;19.80;99.90;;;;;;5113426;28;20410;-69
2022/06/24 03:35:02;;;;;;;20.75;16.83;;;19.90;99.90;;;;;;5097138;28;20046;-68
2022/06/24 03:37:30;;;;;;;14.55;11.93;;;20.00;99.90;;;;;;5080380;28;20043;-67
2022/06/24 03:39:56;;;;;;;14.77;9.20;;;20.00;99.90;;;;;;5097150;28;20046;-69
2022/06/24 03:42:22;;;;;;;12.90;7.00;;;20.00;99.90;;;;;;5097351;28;20398;-69
2022/06/24 03:44:49;;;;;;;9.43;6.93;;;20.00;99.90;;;;;;5115131;28;20039;-68
2022/06/24 03:47:15;;;;;;;10.05;6.93;;;19.90;99.90;;;;;;5093332;28;20081;-65
2022/06/24 03:49:41;;;;;;;10.57;6.80;;;19.90;99.90;;;;;;5093896;28;20059;-69
2022/06/24 03:52:08;;;;;;;12.18;6.95;;;19.80;99.90;;;;;;5094981;28;20033;-67
2022/06/24 03:54:34;;;;;;;11.85;7.00;;;19.80;99.90;;;;;;5093690;28;20161;-67
2022/06/24 03:57:01;;;;;;;10.02;6.75;;;19.70;99.90;;;;;;5094749;28;20118;-66
2022/06/24 03:59:27;;;;;;;10.13;5.93;;;19.60;99.90;;;;;;5093504;28;20050;-66
2022/06/24 04:01:53;;;;;;;10.40;6.70;;;19.60;99.90;;;;;;5091257;28;20048;-67
2022/06/24 04:04:19;;;;;;;11.30;7.47;;;19.50;99.90;;;;;;5093184;28;20051;-70
2022/06/24 04:06:45;;;;;;;11.20;6.55;;;19.50;99.90;;;;;;5093504;28;20039;-69
2022/06/24 04:09:11;;;;;;;9.77;7.15;;;19.50;99.90;;;;;;5093383;28;20392;-69
2022/06/24 04:11:36;;;;;;;8.05;6.18;;;19.50;99.90;;;;;;5094433;28;20032;-67
2022/06/24 04:14:03;;;;;;;7.72;6.15;;;19.50;99.90;;;;;;5094418;28;20480;-68
2022/06/24 04:16:29;;;;;;;9.20;6.30;;;19.50;99.90;;;;;;5093352;28;20040;-67
2022/06/24 04:18:55;;;;;;;9.05;5.70;;;19.50;99.90;;;;;;5094642;28;20040;-69
2022/06/24 04:21:21;;;;;;;6.88;6.22;;;19.50;99.90;;;;;;5093229;28;20426;-71
2022/06/24 04:23:51;;;;;;;9.93;5.65;;;19.50;99.90;;;;;;5094323;28;20059;-69
2022/06/24 04:26:19;;;;;;;6.63;5.75;;;19.50;99.90;;;;;;5076085;28;20032;-72
2022/06/24 04:28:48;;;;;;;8.25;5.60;;;19.40;99.90;;;;;;5094130;28;20067;-69
2022/06/24 04:31:13;;;;;;;9.17;5.80;;;19.40;99.90;;;;;;5090689;28;20069;-68
2022/06/24 04:33:39;;;;;;;8.25;5.88;;;19.40;99.90;;;;;;5094058;28;20039;-67
2022/06/24 04:36:15;;;;;;;9.10;5.82;;;19.40;99.90;;;;;;5092976;28;20173;-68
2022/06/24 04:38:42;;;;;;;6.63;5.18;;;19.40;99.90;;;;;;5092792;28;20048;-66
2022/06/24 04:41:16;;;;;;;7.00;5.85;;;19.40;99.90;;;;;;5092921;28;20044;-68
2022/06/24 04:43:42;;;;;;;6.88;5.28;;;19.40;99.90;;;;;;5092389;28;20610;-69
2022/06/24 04:46:08;;;;;;;8.80;5.85;;;19.30;99.90;;;;;;5092577;28;20055;-67
2022/06/24 04:48:35;;;;;;;7.47;5.22;;;19.40;99.90;;;;;;5109495;28;20051;-67
2022/06/24 04:51:02;;;;;;;16.08;7.20;;;19.30;99.90;;;;;;5095779;28;20054;-65
2022/06/24 04:53:29;;;;;;;7.13;5.35;;;19.30;99.90;;;;;;5096086;28;20513;-65
2022/06/24 04:55:55;;;;;;;11.50;6.70;;;19.30;99.90;;;;;;5113337;28;20046;-67
2022/06/24 04:58:21;;;;;;;6.63;4.55;;;19.30;99.90;;;;;;5113854;28;20035;-68
2022/06/24 05:00:47;;;;;;;6.18;5.15;;;19.30;99.90;;;;;;5113880;28;20044;-69
2022/06/24 05:03:12;;;;;;;6.47;5.57;;;19.30;99.90;;;;;;5093466;28;20069;-70
2022/06/24 05:05:38;;;;;;;7.07;5.38;;;19.30;99.90;;;;;;5095804;28;20119;-70
2022/06/24 05:08:05;;;;;;;6.53;4.88;;;19.30;99.90;;;;;;5113879;28;20383;-69
2022/06/24 05:10:31;;;;;;;5.63;5.10;;;19.30;99.90;;;;;;5095703;28;20036;-69
2022/06/24 05:12:57;;;;;;;6.55;5.00;;;19.30;99.90;;;;;;5095566;28;20529;-70
2022/06/24 05:15:23;;;;;;;7.63;5.60;;;19.30;99.90;;;;;;5113920;28;20428;-69
2022/06/24 05:17:49;;;;;;;7.78;5.25;;;19.30;99.90;;;;;;5078790;28;20039;-69
2022/06/24 05:20:15;;;;;;;6.70;5.30;;;19.30;99.90;;;;;;5095629;28;20376;-70
2022/06/24 05:22:41;;;;;;;7.72;5.90;;;19.30;99.90;;;;;;5078683;28;20421;-69
2022/06/24 05:25:07;;;;;;;7.95;6.10;;;19.40;99.90;;;;;;5113436;28;20548;-69
2022/06/24 05:27:33;;;;;;;10.57;6.07;;;19.40;99.90;;;;;;5113401;28;20044;-69
2022/06/24 05:29:59;;;;;;;9.77;6.70;;;19.40;99.90;;;;;;5095278;28;20118;-68
2022/06/24 05:32:25;;;;;;;8.50;6.65;;;19.30;99.90;;;;;;5093246;28;20126;-68
2022/06/24 05:34:51;;;;;;;7.22;6.50;;;19.40;99.90;;;;;;5095108;28;20495;-68
2022/06/24 05:37:17;;;;;;;8.25;6.05;;;19.40;99.90;;;;;;5095172;28;20047;-69
2022/06/24 05:39:42;;;;;;;9.57;7.43;;;19.30;99.90;;;;;;5113475;28;20111;-69
2022/06/24 05:42:08;;;;;;;8.05;6.93;;;19.30;99.90;;;;;;5095044;28;20054;-67
2022/06/24 05:44:34;;;;;;;10.23;6.88;;;19.40;99.90;;;;;;5078144;28;20067;-68
2022/06/24 05:47:00;;;;;;;11.27;7.57;;;19.30;99.90;;;;;;5113250;28;20055;-69
2022/06/24 05:49:26;;;;;;;8.82;7.22;;;19.30;99.90;;;;;;5095283;28;20035;-68
2022/06/24 05:51:52;;;;;;;8.00;7.20;;;19.40;99.90;;;;;;5113282;28;20044;-69
2022/06/24 05:57:16;;;;;;;7.28;6.57;;;19.30;99.90;;;;;;5056817;28;20048;-68
2022/06/24 05:59:42;;;;;;;9.40;7.38;;;19.40;99.90;;;;;;5094963;28;20051;-69
2022/06/24 06:02:08;;;;;;;9.15;7.13;;;19.30;99.90;;;;;;5092693;28;20035;-70
2022/06/24 06:04:34;;;;;;;11.25;7.95;;;19.30;99.90;;;;;;5094719;28;20071;-70
2022/06/24 06:07:00;;;;;;;9.73;8.40;;;19.30;99.90;;;;;;5094325;28;20069;-69
2022/06/24 06:09:26;;;;;;;9.88;7.70;;;19.30;99.90;;;;;;5097769;28;20054;-69
2022/06/24 06:11:52;;;;;;;10.55;8.68;;;19.30;99.90;;;;;;5097689;28;20039;-70
2022/06/24 06:14:18;;;;;;;10.10;8.73;;;19.40;99.90;;;;;;5098708;28;20039;-71
2022/06/24 06:16:47;;;;;;;11.20;8.35;;;19.50;99.90;;;;;;5098958;28;20093;-72
2022/06/24 06:19:13;;;;;;;12.65;8.95;;;19.50;99.90;;;;;;5116138;28;20047;-71
2022/06/24 06:21:38;;;;;;;11.13;7.95;;;19.60;99.90;;;;;;5098844;28;20066;-71
2022/06/24 06:24:05;;;;;;;9.85;8.55;;;19.70;99.90;;;;;;5116801;28;20040;-71
2022/06/24 06:26:31;;;;;;;9.88;8.02;;;19.70;99.90;;;;;;5117066;28;20074;-71
2022/06/24 06:28:57;;;;;;;11.70;8.05;;;19.80;99.90;;;;;;5081715;28;20066;-71
2022/06/24 06:31:22;;;;;;;10.57;8.77;;;19.80;99.90;;;;;;5096348;28;20491;-71
2022/06/24 06:33:48;;;;;;;10.43;7.80;;;19.80;99.90;;;;;;5116690;28;20050;-71
2022/06/24 06:36:15;;;;;;;11.68;9.45;;;19.80;99.90;;;;;;5098419;28;20050;-70
2022/06/24 06:38:41;;;;;;;16.45;9.48;;;19.70;99.90;;;;;;5116868;28;20043;-71
2022/06/24 06:41:07;;;;;;;14.57;10.00;;;19.70;99.90;;;;;;5098332;28;20104;-70
2022/06/24 06:43:33;;;;;;;13.85;10.25;;;19.70;99.90;;;;;;5098162;28;20044;-69
2022/06/24 06:45:59;;;;;;;13.40;10.82;;;19.70;99.90;;;;;;5098533;28;20042;-70
2022/06/24 06:48:26;;;;;;;13.38;9.93;;;19.70;99.90;;;;;;5097922;28;20052;-70
2022/06/24 06:50:59;;;;;;;18.67;10.88;;;19.60;99.90;;;;;;5097949;28;20051;-69
2022/06/24 06:53:26;;;;;;;14.93;10.88;;;19.60;99.90;;;;;;5116351;28;20495;-69
2022/06/24 06:55:53;;;;;;;18.10;12.25;;;19.60;99.90;;;;;;5081506;28;20046;-69
2022/06/24 06:58:19;;;;;;;18.60;13.32;;;19.60;99.90;;;;;;5098187;28;20380;-69
2022/06/24 07:00:45;;;;;;;14.57;11.73;;;19.60;99.90;;;;;;5116247;28;20052;-69
2022/06/24 07:03:12;;;;;;;14.48;10.55;;;19.60;99.90;;;;;;5095947;28;20043;-69
2022/06/24 07:05:38;;;;;;;15.70;10.35;;;19.60;99.90;;;;;;5097823;28;20101;-69
2022/06/24 07:08:05;;;;;;;14.07;11.65;;;19.60;99.90;;;;;;5080843;28;20038;-69
2022/06/24 07:10:31;;;;;;;17.58;11.68;;;19.60;99.90;;;;;;5116179;28;20031;-69
2022/06/24 07:12:57;;;;;;;13.15;10.50;;;19.70;99.90;;;;;;5116102;28;20063;-69
2022/06/24 07:15:22;;;;;;;13.35;11.95;;;19.70;99.90;;;;;;5097656;28;20745;-69
2022/06/24 07:17:48;;;;;;;17.65;12.90;;;19.70;99.90;;;;;;5097511;28;20039;-69
2022/06/24 07:20:14;;;;;;;12.75;10.93;;;19.80;99.90;;;;;;5080439;28;20082;-70
2022/06/24 07:22:40;;;;;;;16.90;11.75;;;19.80;99.90;;;;;;5097471;28;20805;-70
2022/06/24 07:25:07;;;;;;;20.20;12.15;;;19.80;99.90;;;;;;5115935;28;20035;-70
2022/06/24 07:27:33;;;;;;;19.35;12.90;;;19.80;99.90;;;;;;5097456;28;20118;-71
2022/06/24 07:30:01;;;;;;;16.25;12.15;;;19.80;99.90;;;;;;5080657;28;20114;-71
2022/06/24 07:32:27;;;;;;;15.88;10.38;;;19.80;99.90;;;;;;5113547;28;20042;-71
2022/06/24 07:34:52;;;;;;;16.02;11.80;;;19.80;99.90;;;;;;5115570;28;20043;-71
2022/06/24 07:37:18;;;;;;;17.45;12.57;;;19.80;99.90;;;;;;5097628;28;20055;-70
2022/06/24 07:39:44;;;;;;;16.55;10.25;;;19.90;99.90;;;;;;5097234;28;20532;-70
2022/06/24 07:42:10;;;;;;;15.82;11.60;;;19.80;99.90;;;;;;5115580;28;20123;-70
2022/06/24 07:44:36;;;;;;;15.35;11.75;;;19.80;99.90;;;;;;5115317;28;20040;-70
2022/06/24 07:47:02;;;;;;;14.20;11.63;;;19.90;99.90;;;;;;5115298;28;20143;-71
2022/06/24 07:49:28;;;;;;;15.75;11.38;;;19.90;99.90;;;;;;5096983;28;20040;-70
2022/06/24 07:51:54;;;;;;;14.52;8.55;;;20.00;99.90;;;;;;5097021;28;20032;-70
2022/06/24 07:54:19;;;;;;;13.52;8.50;;;20.00;99.90;;;;;;5096988;28;20047;-69
2022/06/24 07:56:57;;;;;;;11.95;9.40;;;20.00;99.90;;;;;;5115318;28;20085;-69
2022/06/24 07:59:29;;;;;;;8.98;7.80;;;20.00;99.90;;;;;;5097083;28;20623;-69
2022/06/24 08:01:56;;;;;;;15.30;10.57;;;20.00;99.90;;;;;;5094430;28;20502;-72
2022/06/24 08:04:23;;;;;;;10.88;9.23;;;20.00;99.90;;;;;;5115210;28;20051;-71
2022/06/24 08:06:50;;;;;;;18.80;12.68;;;20.00;99.90;;;;;;5079988;28;20119;-71
2022/06/24 08:09:17;;;;;;;16.85;11.93;;;19.90;99.90;;;;;;5080111;28;20035;-72
2022/06/24 08:11:44;;;;;;;12.38;9.57;;;19.90;99.90;;;;;;5080031;28;20375;-72
2022/06/24 08:14:10;;;;;;;12.05;8.60;;;19.90;99.90;;;;;;5096530;28;20184;-72
2022/06/24 08:16:36;;;;;;;12.27;7.75;;;19.80;99.90;;;;;;5096596;28;20043;-71
2022/06/24 08:19:02;;;;;;;14.38;9.07;;;19.80;99.90;;;;;;5112113;28;20089;-68
2022/06/24 08:21:28;;;;;;;19.38;11.98;;;19.70;99.90;;;;;;5096517;28;20399;-67
2022/06/24 08:23:54;;;;;;;13.55;10.32;;;19.60;99.90;;;;;;5095988;28;20040;-70
2022/06/24 08:26:19;;;;;;;18.65;12.00;;;19.60;99.90;;;;;;5096419;28;20050;-71
2022/06/24 08:28:45;;;;;;;14.65;10.63;;;19.50;99.90;;;;;;5079463;28;20349;-69
2022/06/24 08:31:11;;;;;;;14.00;10.32;;;19.60;99.90;;;;;;5093121;28;20064;-68
2022/06/24 08:33:37;;;;;;;7.35;6.53;;;19.50;99.90;;;;;;5114164;28;20472;-66
2022/06/24 08:36:03;;;;;;;11.23;7.47;;;19.50;99.90;;;;;;5114428;28;20069;-67
2022/06/24 08:38:30;;;;;;;9.63;6.60;;;19.40;99.90;;;;;;5095849;28;20104;-66
2022/06/24 08:41:01;;;;;;;12.65;7.93;;;19.30;99.90;;;;;;5095986;28;20048;-67
2022/06/24 08:43:33;;;;;;;11.02;8.88;;;19.20;99.90;;;;;;5095619;28;20050;-68
2022/06/24 08:46:01;;;;;;;8.50;7.35;;;19.20;99.90;;;;;;5078981;28;20043;-69
2022/06/24 08:48:28;;;;;;;16.63;9.40;;;19.20;99.90;;;;;;5078729;28;20130;-70
2022/06/24 08:50:54;;;;;;;15.13;9.57;;;19.20;99.90;;;;;;5095817;28;20062;-70
2022/06/24 08:53:27;;;;;;;16.30;10.25;;;19.10;99.90;;;;;;5095967;28;20039;-70
2022/06/24 08:55:54;;;;;;;16.23;8.60;;;19.10;99.90;;;;;;5095666;28;20490;-68
2022/06/24 08:58:21;;;;;;;12.15;7.32;;;19.10;99.90;;;;;;5095601;28;20048;-65
2022/06/24 09:00:47;;;;;;;10.25;5.72;;;19.00;99.90;;;;;;5095627;28;20039;-66
2022/06/24 09:03:13;;;;;;;9.38;5.88;;;19.00;99.90;;;;;;5110959;28;20548;-68
2022/06/24 09:05:40;;;;;;;8.18;5.55;;;18.90;99.90;;;;;;5112915;28;20036;-66
2022/06/24 09:08:14;;;;;;;8.60;5.07;;;18.80;99.90;;;;;;5094505;28;20141;-66
2022/06/24 09:10:42;;;;;;;6.78;5.20;;;18.80;99.90;;;;;;5112635;28;20444;-68
2022/06/24 09:13:20;;;;;;;7.97;6.07;;;18.70;99.90;;;;;;5094768;28;20363;-69
2022/06/24 09:15:53;;;;;;;7.55;5.00;;;18.70;99.90;;;;;;5094361;28;20055;-68
2022/06/24 09:18:23;;;;;;;8.05;4.40;;;18.70;99.90;;;;;;5112722;28;20069;-70
2022/06/24 09:20:55;;;;;;;;;;;18.70;99.90;;;;;;5095036;28;20039;-68
2022/06/24 09:23:21;;;;;;;10.85;6.20;;;18.70;99.90;;;;;;5094247;28;20439;-67
2022/06/24 09:25:52;;;;;;;5.57;3.88;;;18.60;99.90;;;;;;5112863;28;20111;-67
2022/06/24 09:28:22;;;;;;;7.18;4.82;;;18.60;99.90;;;;;;5112578;28;20035;-67
2022/06/24 09:30:48;;;;;;;;;;;18.60;99.90;;;;;;5113035;28;20042;-68
2022/06/24 09:33:19;;;;;;;8.40;5.15;;;18.50;99.90;;;;;;5073785;28;19915;-69
2022/06/24 09:35:45;;;;;;;7.97;5.35;;;18.50;99.90;;;;;;5108050;28;20051;-70
2022/06/24 09:38:11;;;;;;;7.72;5.13;;;18.50;99.90;;;;;;5077213;28;20126;-70
2022/06/24 09:40:41;;;;;;;5.70;4.50;;;18.50;99.90;;;;;;5112202;28;20118;-70
2022/06/24 09:43:09;;;;;;;;;;;18.50;99.90;;;;;;5112769;28;20039;-71
2022/06/24 09:45:53;;;;;;;6.10;5.18;;;18.50;99.90;;;;;;5112216;28;19920;-71
2022/06/24 09:48:32;;;;;;;6.85;5.72;;;18.50;99.90;;;;;;5093934;28;20043;-71
2022/06/24 09:51:01;;;;;;;13.38;7.05;;;18.60;99.90;;;;;;5077424;28;20043;-70
2022/06/24 09:53:28;;;;;;;12.13;8.43;;;18.60;99.90;;;;;;5111930;28;20567;-70
2022/06/24 09:55:54;;;;;;;9.73;8.05;;;18.60;99.90;;;;;;5093941;28;20071;-71
2022/06/24 09:58:22;;;;;;;8.95;6.00;;;18.60;99.90;;;;;;5094110;28;20126;-70
2022/06/24 10:00:49;;;;;;;7.60;5.68;;;18.60;99.90;;;;;;5076828;28;20123;-69
2022/06/24 10:03:15;;;;;;;11.45;8.65;;;18.60;99.90;;;;;;5074604;28;20050;-66
2022/06/24 10:05:45;;;;;;;10.68;7.07;;;18.60;99.90;;;;;;5093782;28;20035;-66
2022/06/24 10:08:14;;;;;;;10.50;6.47;;;18.60;99.90;;;;;;5094155;28;20051;-66
2022/06/24 10:10:46;;;;;;;9.77;5.43;;;18.60;99.90;;;;;;5112013;28;20462;-67
2022/06/24 10:13:28;;;;;;;10.35;5.70;;;18.50;99.90;;;;;;5112027;28;20092;-67
2022/06/24 10:15:57;;;;;;;8.95;5.75;;;18.60;99.90;;;;;;5112061;28;20046;-69
2022/06/24 10:18:32;;;;;;;8.90;5.60;;;18.60;99.90;;;;;;5077062;28;20081;-69
2022/06/24 10:21:01;;;;;;;5.50;4.80;;;18.70;99.90;;;;;;5093664;28;20043;-68
2022/06/24 10:23:38;;;;;;;8.95;6.57;;;18.80;99.90;;;;;;5093762;28;20130;-68
2022/06/24 10:26:18;;;;;;;8.90;6.40;;;19.00;99.90;;;;;;5093913;28;20051;-68
2022/06/24 10:29:00;;;;;;;8.20;7.38;;;19.20;99.90;;;;;;5093668;28;20046;-71
2022/06/24 10:31:44;;;;;;;8.93;7.03;;;19.40;99.90;;;;;;5091389;28;20101;-71
2022/06/24 10:34:26;;;;;;;10.45;8.75;;;19.60;99.90;;;;;;5093605;28;20047;-71
2022/06/24 10:36:57;;;;;;;13.07;11.82;;;19.70;99.90;;;;;;5111754;28;20047;-70
2022/06/24 10:39:28;;;;;;;18.48;13.98;;;19.90;99.90;;;;;;5093959;28;20427;-73
2022/06/24 10:42:05;;;;;;;18.40;16.15;;;20.00;99.90;;;;;;5093292;28;20051;-72
2022/06/24 10:44:36;;;;;;;17.10;14.48;;;20.10;99.90;;;;;;5111543;28;20395;-73
2022/06/24 10:47:05;;;;;;;18.23;15.32;;;20.10;99.90;;;;;;5111422;28;20515;-74
2022/06/24 10:49:55;;;;;;;19.90;17.85;;;20.20;99.90;;;;;;5093720;28;20047;-74
2022/06/24 10:52:56;;;;;;;19.95;17.83;;;20.20;99.90;;;;;;5076548;28;20031;-73
2022/06/24 10:55:24;;;;;;;24.42;19.75;;;20.30;99.90;;;;;;5096595;28;20126;-72
2022/06/24 10:57:52;;;;;;;22.23;19.67;;;20.30;99.90;;;;;;5115563;28;20063;-72
2022/06/24 11:00:26;;;;;;;20.80;18.60;;;20.40;99.90;;;;;;5115348;28;20479;-73
2022/06/24 11:02:58;;;;;;;20.35;18.05;;;20.40;99.90;;;;;;5113041;28;20043;-70
2022/06/24 11:05:32;;;;;;;25.05;22.50;;;20.50;99.90;;;;;;5096696;28;20050;-70
2022/06/24 11:07:59;;;;;;;22.23;19.83;;;20.50;99.90;;;;;;5080113;28;20037;-69
2022/06/24 11:10:30;;;;;;;24.15;21.60;;;20.60;99.90;;;;;;5114431;28;20043;-72
2022/06/24 11:12:58;;;;;;;24.92;22.20;;;20.70;99.90;;;;;;5114516;28;20043;-69
2022/06/24 11:15:40;;;;;;;22.48;20.10;;;20.80;99.90;;;;;;5115255;28;20050;-69
2022/06/24 11:18:19;;;;;;;23.50;20.15;;;20.90;99.90;;;;;;5114249;28;20043;-70
2022/06/24 11:20:54;;;;;;;21.67;19.43;;;21.10;99.90;;;;;;5112630;27;20399;-70
2022/06/24 11:23:23;;;;;;;23.10;20.83;;;21.30;99.90;;;;;;5097214;28;20288;-71
2022/06/24 11:25:57;;;;;;;24.17;20.88;;;21.40;99.90;;;;;;5096613;28;20089;-71
2022/06/24 11:28:25;;;;;;;19.30;17.30;;;21.60;99.90;;;;;;5096454;28;20491;-70
2022/06/24 11:30:54;;;;;;;24.00;20.90;;;21.70;99.90;;;;;;5115596;28;20040;-72
2022/06/24 11:33:21;;;;;;;22.50;18.67;;;21.80;99.90;;;;;;5094941;28;20493;-72
2022/06/24 11:35:48;;;;;;;20.27;15.95;;;21.70;99.90;;;;;;5097244;28;20054;-71
2022/06/24 11:38:19;;;;;;;19.10;17.10;;;21.80;99.90;;;;;;5115455;28;20048;-72
2022/06/24 11:40:46;;;;;;;18.65;16.75;;;21.70;99.90;;;;;;5096627;28;20036;-72
2022/06/24 11:43:13;;;;;;;18.92;16.85;;;21.70;99.90;;;;;;5096780;28;20467;-72
2022/06/24 11:45:44;;;;;;;20.52;18.25;;;21.70;99.90;;;;;;5096895;28;20043;-72
2022/06/24 11:48:17;;;;;;;19.35;17.35;;;21.70;99.90;;;;;;5097099;28;20051;-72
2022/06/24 11:50:48;;;;;;;20.73;17.55;;;21.70;99.90;;;;;;5096939;28;20067;-72
2022/06/24 11:53:16;;;;;;;19.27;17.25;;;21.70;99.90;;;;;;5114988;28;20078;-73
2022/06/24 11:55:47;;;;;;;20.90;18.70;;;21.80;99.90;;;;;;5115171;28;20044;-72
2022/06/24 11:58:18;;;;;;;18.80;16.90;;;21.80;99.90;;;;;;5094974;28;20043;-73
2022/06/24 12:00:44;;;;;;;16.08;14.45;;;21.90;99.90;;;;;;5096734;28;20039;-73
2022/06/24 12:03:11;;;;;;;16.52;14.48;;;21.90;99.90;;;;;;5094581;28;20058;-72
2022/06/24 12:05:40;;;;;;;16.23;14.68;;;22.00;99.90;;;;;;5096530;28;20092;-77
2022/06/24 12:08:07;;;;;;;15.50;13.23;;;22.00;99.90;;;;;;5096657;28;20118;-73
2022/06/24 12:10:35;;;;;;;15.07;13.30;;;22.00;99.90;;;;;;5096822;28;20027;-75
2022/06/24 12:13:05;;;;;;;15.00;13.57;;;22.00;99.90;;;;;;5114181;28;20044;-73
2022/06/24 12:15:37;;;;;;;15.65;13.82;;;22.10;99.90;;;;;;5095571;28;20266;-73
2022/06/24 12:18:15;;;;;;;17.63;14.23;;;22.10;99.90;;;;;;5095843;28;20062;-74
2022/06/24 12:20:41;;;;;;;14.70;13.20;;;22.10;99.90;;;;;;5113652;28;20049;-73
2022/06/24 12:23:22;;;;;;;18.77;14.20;;;22.10;99.90;;;;;;5095175;28;20484;-72
2022/06/24 12:25:51;;;;;;;17.92;14.40;;;22.10;99.90;;;;;;5078514;28;20043;-72
2022/06/24 12:28:21;;;;;;;18.17;16.27;;;22.20;99.90;;;;;;5113418;28;20488;-74
2022/06/24 12:31:00;;;;;;;18.00;16.27;;;22.20;99.90;;;;;;5095446;28;20078;-72
2022/06/24 12:33:29;;;;;;;15.55;13.80;;;22.30;99.90;;;;;;5112001;28;20071;-71
2022/06/24 12:36:09;;;;;;;18.10;16.05;;;22.30;99.90;;;;;;5095439;28;20189;-72
2022/06/24 12:38:36;;;;;;;16.77;15.18;;;22.30;99.90;;;;;;5113264;28;20039;-77
2022/06/24 12:41:21;;;;;;;18.75;16.65;;;22.40;99.90;;;;;;5113431;28;20438;-72
2022/06/24 12:44:00;;;;;;;18.70;16.75;;;22.50;99.90;;;;;;5094950;28;20040;-73
2022/06/24 12:46:33;;;;;;;18.65;16.33;;;22.60;99.90;;;;;;5113485;28;20043;-72
2022/06/24 12:51:48;;;;;;;18.25;16.30;;;22.70;99.90;;;;;;5094889;28;20207;-70